createdAt,value
2019-05-29T00:00:10.142Z,10.88
2019-05-29T00:02:38.972Z,14.37
2019-05-29T00:05:08.047Z,10.95
2019-05-29T00:07:36.682Z,15.60
2019-05-29T00:10:06.456Z,9.70
2019-05-29T00:12:35.042Z,13.93
2019-05-29T00:15:03.782Z,11.28
2019-05-29T00:17:32.326Z,11.40
2019-05-29T00:20:00.952Z,12.15
2019-05-29T00:22:29.592Z,13.03
2019-05-29T00:24:58.218Z,15.78
2019-05-29T00:27:26.856Z,13.93
2019-05-29T00:29:55.570Z,8.00
2019-05-29T00:32:24.154Z,8.53
2019-05-29T00:34:52.802Z,13.32
2019-05-29T00:37:21.420Z,8.65
2019-05-29T00:39:50.171Z,9.70
2019-05-29T00:42:18.792Z,17.12
2019-05-29T00:44:47.496Z,14.28
2019-05-29T00:47:16.146Z,20.90
2019-05-29T00:49:44.755Z,13.38
2019-05-29T00:52:14.291Z,9.58
2019-05-29T00:54:43.190Z,11.10
2019-05-29T00:57:12.863Z,13.78
2019-05-29T00:59:41.538Z,9.55
2019-05-29T01:02:11.794Z,12.33
2019-05-29T01:04:40.410Z,10.60
2019-05-29T01:07:10.170Z,12.80
2019-05-29T01:09:38.892Z,12.63
2019-05-29T01:12:07.585Z,15.80
2019-05-29T01:14:49.148Z,19.17
2019-05-29T01:17:06.627Z,9.08
2019-05-29T01:19:35.259Z,14.17
2019-05-29T01:22:03.867Z,11.03
2019-05-29T01:24:33.215Z,14.48
2019-05-29T01:27:01.728Z,14.15
2019-05-29T01:29:30.347Z,11.05
2019-05-29T01:31:58.913Z,10.20
2019-05-29T01:34:27.491Z,13.62
2019-05-29T01:36:56.226Z,9.87
2019-05-29T01:39:24.815Z,15.60
2019-05-29T01:41:53.342Z,10.93
2019-05-29T01:44:21.861Z,18.07
2019-05-29T01:46:51.203Z,13.92
2019-05-29T01:49:19.726Z,11.33
2019-05-29T01:51:48.327Z,14.55
2019-05-29T01:54:17.549Z,18.25
2019-05-29T01:56:46.214Z,11.12
2019-05-29T01:59:15.690Z,12.10
2019-05-29T02:01:44.255Z,18.70
2019-05-29T02:04:12.953Z,13.03
2019-05-29T02:06:41.546Z,13.38
2019-05-29T02:09:10.166Z,12.33
2019-05-29T02:11:38.901Z,7.03
2019-05-29T02:14:07.449Z,9.85
2019-05-29T02:16:36.015Z,9.37
2019-05-29T02:19:04.879Z,6.03
2019-05-29T02:21:33.461Z,14.43
2019-05-29T02:24:02.191Z,13.33
2019-05-29T02:26:31.127Z,12.53
2019-05-29T02:28:59.845Z,12.00
2019-05-29T02:31:28.962Z,10.55
2019-05-29T02:33:57.642Z,12.07
2019-05-29T02:36:27.198Z,13.85
2019-05-29T02:38:56.539Z,12.75
2019-05-29T02:41:26.224Z,8.55
2019-05-29T02:43:55.470Z,6.60
2019-05-29T02:46:25.933Z,11.33
2019-05-29T02:48:54.330Z,9.95
2019-05-29T02:51:24.234Z,9.73
2019-05-29T02:53:53.021Z,10.00
2019-05-29T02:56:22.985Z,10.85
2019-05-29T02:58:52.094Z,7.00
2019-05-29T03:01:21.575Z,5.58
2019-05-29T03:03:50.665Z,6.70
2019-05-29T03:06:19.423Z,12.53
2019-05-29T03:08:48.133Z,7.22
2019-05-29T03:11:16.769Z,9.23
2019-05-29T03:13:45.704Z,10.98
2019-05-29T03:16:14.313Z,6.10
2019-05-29T03:18:43.014Z,5.85
2019-05-29T03:21:11.662Z,9.08
2019-05-29T03:23:40.414Z,9.90
2019-05-29T03:26:09.061Z,4.85
2019-05-29T03:28:38.189Z,9.90
2019-05-29T03:31:07.235Z,7.53
2019-05-29T03:33:45.334Z,7.85
2019-05-29T03:36:06.307Z,7.20
2019-05-29T03:38:35.173Z,3.33
2019-05-29T03:41:04.040Z,4.72
2019-05-29T03:43:35.057Z,2.52
2019-05-29T03:46:02.933Z,6.25
2019-05-29T03:48:32.472Z,5.08
2019-05-29T03:51:01.770Z,2.30
2019-05-29T03:53:31.606Z,8.53
2019-05-29T03:56:00.601Z,2.63
2019-05-29T03:58:30.843Z,4.28
2019-05-29T04:01:00.108Z,3.35
2019-05-29T04:03:29.016Z,6.62
2019-05-29T04:05:57.648Z,5.00
2019-05-29T04:08:27.395Z,2.33
2019-05-29T04:10:56.817Z,5.15
2019-05-29T04:13:27.266Z,3.53
2019-05-29T04:15:57.210Z,3.40
2019-05-29T04:18:27.597Z,5.20
2019-05-29T04:20:57.017Z,9.25
2019-05-29T04:23:29.981Z,3.25
2019-05-29T04:26:00.187Z,6.03
2019-05-29T04:28:30.392Z,4.10
2019-05-29T04:30:59.488Z,3.58
2019-05-29T04:33:28.215Z,2.47
2019-05-29T04:35:56.988Z,6.47
2019-05-29T04:38:25.658Z,2.95
2019-05-29T04:40:54.349Z,3.08
2019-05-29T04:43:22.975Z,3.27
2019-05-29T04:45:51.627Z,2.47
2019-05-29T04:48:20.254Z,4.12
2019-05-29T04:50:49.369Z,4.72
2019-05-29T04:53:17.991Z,2.72
2019-05-29T04:55:46.565Z,2.87
2019-05-29T04:58:15.135Z,4.23
2019-05-29T05:00:58.192Z,2.25
2019-05-29T05:03:13.989Z,5.72
2019-05-29T05:05:42.551Z,3.47
2019-05-29T05:08:11.244Z,2.83
2019-05-29T05:10:41.381Z,2.17
2019-05-29T05:13:10.534Z,2.90
2019-05-29T05:15:40.365Z,2.83
2019-05-29T05:18:09.048Z,3.65
2019-05-29T05:20:38.386Z,2.50
2019-05-29T05:23:07.095Z,4.10
2019-05-29T05:25:36.406Z,1.05
2019-05-29T05:28:05.432Z,1.57
2019-05-29T05:30:34.415Z,2.15
2019-05-29T05:33:03.127Z,0.78
2019-05-29T05:35:32.581Z,1.48
2019-05-29T05:38:01.290Z,3.15
2019-05-29T05:40:30.762Z,2.15
2019-05-29T05:42:59.478Z,4.55
2019-05-29T05:45:28.234Z,4.55
2019-05-29T05:47:57.933Z,4.62
2019-05-29T05:50:27.226Z,3.37
2019-05-29T05:52:55.882Z,4.17
2019-05-29T05:55:24.423Z,1.12
2019-05-29T05:57:53.205Z,3.15
2019-05-29T06:00:27.653Z,2.30
2019-05-29T06:02:57.218Z,4.28
2019-05-29T06:05:25.917Z,3.20
2019-05-29T06:07:54.614Z,2.55
2019-05-29T06:10:23.338Z,2.60
2019-05-29T06:12:52.043Z,2.22
2019-05-29T06:15:20.758Z,2.58
2019-05-29T06:18:05.017Z,3.22
2019-05-29T06:20:19.603Z,4.73
2019-05-29T06:22:48.228Z,3.08
2019-05-29T06:25:17.600Z,2.12
2019-05-29T06:27:46.273Z,3.33
2019-05-29T06:30:15.162Z,1.62
2019-05-29T06:32:43.812Z,1.75
2019-05-29T06:35:12.803Z,3.45
2019-05-29T06:37:41.771Z,2.15
2019-05-29T06:40:10.763Z,1.85
2019-05-29T06:42:39.840Z,1.87
2019-05-29T06:45:09.423Z,4.85
2019-05-29T06:47:38.753Z,1.95
2019-05-29T06:50:07.792Z,2.83
2019-05-29T06:52:37.403Z,3.37
2019-05-29T06:55:06.218Z,3.07
2019-05-29T06:57:35.958Z,3.98
2019-05-29T07:00:09.332Z,3.22
2019-05-29T07:02:38.500Z,2.33
2019-05-29T07:05:07.233Z,1.97
2019-05-29T07:07:36.107Z,1.75
2019-05-29T07:10:07.873Z,2.95
2019-05-29T07:12:36.450Z,3.53
2019-05-29T07:15:09.491Z,5.03
2019-05-29T07:17:38.645Z,2.47
2019-05-29T07:20:07.497Z,1.37
2019-05-29T07:22:37.026Z,3.25
2019-05-29T07:25:06.931Z,1.82
2019-05-29T07:27:36.717Z,4.22
2019-05-29T07:30:06.864Z,5.42
2019-05-29T07:32:35.553Z,3.40
2019-05-29T07:35:05.803Z,2.02
2019-05-29T07:37:34.431Z,1.60
2019-05-29T07:40:03.961Z,2.52
2019-05-29T07:42:33.041Z,2.02
2019-05-29T07:45:01.628Z,2.02
2019-05-29T07:47:30.305Z,2.03
2019-05-29T07:49:58.933Z,5.53
2019-05-29T07:52:27.627Z,1.27
2019-05-29T07:54:56.265Z,3.58
2019-05-29T07:57:24.842Z,1.37
2019-05-29T07:59:53.541Z,2.98
2019-05-29T08:02:22.251Z,1.67
2019-05-29T08:04:50.854Z,0.57
2019-05-29T08:07:19.551Z,2.05
2019-05-29T08:09:48.120Z,1.87
2019-05-29T08:12:16.777Z,3.20
2019-05-29T08:14:45.859Z,2.95
2019-05-29T08:17:14.623Z,2.35
2019-05-29T08:19:59.293Z,1.37
2019-05-29T08:22:13.800Z,2.50
2019-05-29T08:24:42.654Z,1.75
2019-05-29T08:27:12.253Z,3.70
2019-05-29T08:29:40.974Z,3.42
2019-05-29T08:32:09.847Z,1.37
2019-05-29T08:34:38.463Z,2.95
2019-05-29T08:37:07.725Z,1.70
2019-05-29T08:39:37.114Z,2.20
2019-05-29T08:44:31.959Z,2.67
2019-05-29T08:47:09.534Z,2.02
2019-05-29T08:49:30.722Z,4.45
2019-05-29T08:52:11.320Z,2.65
2019-05-29T08:54:29.661Z,2.55
2019-05-29T08:56:58.438Z,1.72
2019-05-29T08:59:27.053Z,0.40
2019-05-29T09:01:55.777Z,2.98
2019-05-29T09:04:24.407Z,1.67
2019-05-29T09:06:53.484Z,3.10
2019-05-29T09:09:22.347Z,4.55
2019-05-29T09:11:51.872Z,2.02
2019-05-29T09:14:20.531Z,2.98
2019-05-29T09:16:49.207Z,2.30
2019-05-29T09:19:18.851Z,1.65
2019-05-29T09:21:48.093Z,4.75
2019-05-29T09:24:17.527Z,3.72
2019-05-29T09:26:46.768Z,2.05
2019-05-29T09:29:18.709Z,2.45
2019-05-29T09:31:46.524Z,1.35
2019-05-29T09:34:15.486Z,0.63
2019-05-29T09:36:45.347Z,1.95
2019-05-29T09:39:16.192Z,1.72
2019-05-29T09:41:44.194Z,1.70
2019-05-29T09:44:28.132Z,4.60
2019-05-29T09:46:43.114Z,2.20
2019-05-29T09:49:11.676Z,2.60
2019-05-29T09:51:40.378Z,1.40
2019-05-29T09:54:08.967Z,0.78
2019-05-29T09:56:37.631Z,1.82
2019-05-29T09:59:06.223Z,1.45
2019-05-29T10:01:34.855Z,2.12
2019-05-29T10:04:06.092Z,1.15
2019-05-29T10:06:33.895Z,2.35
2019-05-29T10:09:03.777Z,2.52
2019-05-29T10:11:32.408Z,2.00
2019-05-29T10:14:02.630Z,0.40
2019-05-29T10:16:31.316Z,2.20
2019-05-29T10:19:01.241Z,1.20
2019-05-29T10:21:40.090Z,2.07
2019-05-29T10:24:01.943Z,1.95
2019-05-29T10:26:30.826Z,1.22
2019-05-29T10:29:07.641Z,1.60
2019-05-29T10:31:29.782Z,2.80
2019-05-29T10:33:58.425Z,0.82
2019-05-29T10:36:27.148Z,1.65
2019-05-29T10:38:55.774Z,0.60
2019-05-29T10:41:25.176Z,2.45
2019-05-29T10:43:53.750Z,4.03
2019-05-29T10:46:22.463Z,1.25
2019-05-29T10:48:53.908Z,2.08
2019-05-29T10:51:21.404Z,0.80
2019-05-29T10:53:52.321Z,1.25
2019-05-29T10:56:21.513Z,1.22
2019-05-29T10:58:56.438Z,2.45
2019-05-29T11:01:26.773Z,2.10
2019-05-29T11:03:55.873Z,1.20
2019-05-29T11:06:24.643Z,2.27
2019-05-29T11:08:54.132Z,1.05
2019-05-29T11:11:23.008Z,3.52
2019-05-29T11:13:52.707Z,3.12
2019-05-29T11:16:21.544Z,1.62
2019-05-29T11:18:51.119Z,3.57
2019-05-29T11:21:20.007Z,1.27
2019-05-29T11:23:49.746Z,1.92
2019-05-29T11:26:18.774Z,1.27
2019-05-29T11:28:48.334Z,1.10
2019-05-29T11:31:17.170Z,2.47
2019-05-29T11:33:45.845Z,1.17
2019-05-29T11:36:15.403Z,0.65
2019-05-29T11:38:45.635Z,1.85
2019-05-29T11:41:25.761Z,0.93
2019-05-29T11:43:44.743Z,1.60
2019-05-29T11:46:13.842Z,1.42
2019-05-29T11:48:42.470Z,1.55
2019-05-29T11:51:11.173Z,1.32
2019-05-29T11:53:39.789Z,2.05
2019-05-29T11:56:08.389Z,0.62
2019-05-29T11:58:37.283Z,0.88
2019-05-29T12:01:05.997Z,0.55
2019-05-29T12:03:34.723Z,3.75
2019-05-29T12:06:03.442Z,1.32
2019-05-29T12:08:32.006Z,0.85
2019-05-29T12:11:01.576Z,1.75
2019-05-29T12:13:30.272Z,0.57
2019-05-29T12:15:59.692Z,1.27
2019-05-29T12:18:28.426Z,1.37
2019-05-29T12:20:58.510Z,2.80
2019-05-29T12:23:27.463Z,1.85
2019-05-29T12:26:16.646Z,0.50
2019-05-29T12:28:26.497Z,0.33
2019-05-29T12:30:55.298Z,0.60
2019-05-29T12:33:23.947Z,3.33
2019-05-29T12:35:52.899Z,1.35
2019-05-29T12:38:21.584Z,0.85
2019-05-29T12:40:50.214Z,0.60
2019-05-29T12:43:27.105Z,2.00
2019-05-29T12:45:49.916Z,2.17
2019-05-29T12:48:18.617Z,1.32
2019-05-29T12:50:47.303Z,0.40
2019-05-29T12:53:29.737Z,1.35
2019-05-29T12:55:47.276Z,0.50
2019-05-29T12:58:15.922Z,1.30
2019-05-29T13:00:44.478Z,1.07
2019-05-29T13:03:13.058Z,1.02
2019-05-29T13:05:42.104Z,2.87
2019-05-29T13:08:10.726Z,1.37
2019-05-29T13:10:39.480Z,1.25
2019-05-29T13:13:11.036Z,0.97
2019-05-29T13:15:38.474Z,0.93
2019-05-29T13:18:09.922Z,1.00
2019-05-29T13:20:37.584Z,3.95
2019-05-29T13:23:07.359Z,2.45
2019-05-29T13:25:36.293Z,1.30
2019-05-29T13:28:06.127Z,0.78
2019-05-29T13:30:34.955Z,2.62
2019-05-29T13:33:06.763Z,1.15
2019-05-29T13:35:33.760Z,1.95
2019-05-29T13:38:03.305Z,2.62
2019-05-29T13:40:32.169Z,3.50
2019-05-29T13:43:06.967Z,1.98
2019-05-29T13:45:31.054Z,2.58
2019-05-29T13:48:01.218Z,2.75
2019-05-29T13:50:30.091Z,2.82
2019-05-29T13:52:59.353Z,1.27
2019-05-29T13:55:28.268Z,1.32
2019-05-29T13:57:57.610Z,2.02
2019-05-29T14:00:33.251Z,1.40
2019-05-29T14:02:58.233Z,1.20
2019-05-29T14:05:27.081Z,2.92
2019-05-29T14:07:55.674Z,1.45
2019-05-29T14:10:24.442Z,3.20
2019-05-29T14:12:53.028Z,3.77
2019-05-29T14:15:21.830Z,1.47
2019-05-29T14:17:51.141Z,0.42
2019-05-29T14:20:19.893Z,2.77
2019-05-29T14:22:48.472Z,1.95
2019-05-29T14:25:17.534Z,2.33
2019-05-29T14:27:46.111Z,3.10
2019-05-29T14:30:15.697Z,3.45
2019-05-29T14:32:44.274Z,2.25
2019-05-29T14:35:13.598Z,1.17
2019-05-29T14:37:42.247Z,1.43
2019-05-29T14:40:12.303Z,1.77
2019-05-29T14:42:41.339Z,3.12
2019-05-29T14:45:10.680Z,0.62
2019-05-29T14:47:39.678Z,1.70
2019-05-29T14:50:09.124Z,2.97
2019-05-29T14:52:38.233Z,1.10
2019-05-29T14:55:08.783Z,2.58
2019-05-29T14:57:37.779Z,1.57
2019-05-29T15:00:20.686Z,3.80
2019-05-29T15:02:41.603Z,2.05
2019-05-29T15:05:11.984Z,2.87
2019-05-29T15:07:41.025Z,2.50
2019-05-29T15:10:22.731Z,3.55
2019-05-29T15:12:42.028Z,2.25
2019-05-29T15:15:13.142Z,2.92
2019-05-29T15:17:41.149Z,1.67
2019-05-29T15:20:12.326Z,3.65
2019-05-29T15:22:40.663Z,3.50
2019-05-29T15:25:18.309Z,2.50
2019-05-29T15:27:40.246Z,2.07
2019-05-29T15:30:11.173Z,4.00
2019-05-29T15:32:40.247Z,2.83
2019-05-29T15:35:12.720Z,5.00
2019-05-29T15:37:39.689Z,1.47
2019-05-29T15:40:10.916Z,1.50
2019-05-29T15:42:39.799Z,1.15
2019-05-29T15:45:10.060Z,1.60
2019-05-29T15:47:38.775Z,1.62
2019-05-29T15:50:12.131Z,2.20
2019-05-29T15:52:42.033Z,2.52
2019-05-29T15:55:24.516Z,1.15
2019-05-29T15:57:41.158Z,4.12
2019-05-29T16:00:13.403Z,3.80
2019-05-29T16:02:42.451Z,2.95
2019-05-29T16:05:13.109Z,3.05
2019-05-29T16:07:41.924Z,1.72
2019-05-29T16:10:14.793Z,2.42
2019-05-29T16:12:42.884Z,4.35
2019-05-29T16:15:13.104Z,3.22
2019-05-29T16:17:41.894Z,3.47
2019-05-29T16:20:12.163Z,3.15
2019-05-29T16:22:41.089Z,1.45
2019-05-29T16:25:10.793Z,3.30
2019-05-29T16:27:39.526Z,3.22
2019-05-29T16:30:08.937Z,2.80
2019-05-29T16:32:37.722Z,3.45
2019-05-29T16:35:07.505Z,2.95
2019-05-29T16:37:36.190Z,4.10
2019-05-29T16:40:14.150Z,6.74
2019-05-29T16:42:43.110Z,2.10
2019-05-29T16:45:12.637Z,2.17
2019-05-29T16:47:41.298Z,3.12
2019-05-29T16:50:12.887Z,3.95
2019-05-29T16:52:41.676Z,2.97
2019-05-29T16:55:11.168Z,3.35
2019-05-29T16:57:39.806Z,1.82
2019-05-29T17:00:09.834Z,1.85
2019-05-29T17:02:39.090Z,1.92
2019-05-29T17:05:10.571Z,2.05
2019-05-29T17:07:39.217Z,3.60
2019-05-29T17:10:08.643Z,2.47
2019-05-29T17:12:38.305Z,1.77
2019-05-29T17:15:11.265Z,4.28
2019-05-29T17:17:39.969Z,3.58
2019-05-29T17:20:10.815Z,2.08
2019-05-29T17:22:39.473Z,3.75
2019-05-29T17:25:09.390Z,1.82
2019-05-29T17:27:37.951Z,4.60
2019-05-29T17:30:08.928Z,2.50
2019-05-29T17:32:37.684Z,6.00
2019-05-29T17:35:08.046Z,3.67
2019-05-29T17:37:37.340Z,2.57
2019-05-29T17:40:07.437Z,2.25
2019-05-29T17:42:36.115Z,0.93
2019-05-29T17:45:07.544Z,5.55
2019-05-29T17:47:36.475Z,4.00
2019-05-29T17:50:08.116Z,1.42
2019-05-29T17:52:36.794Z,3.70
2019-05-29T17:55:10.510Z,2.42
2019-05-29T17:57:39.283Z,4.00
2019-05-29T18:00:11.231Z,3.42
2019-05-29T18:02:51.339Z,2.05
2019-05-29T18:05:10.401Z,1.82
2019-05-29T18:07:39.125Z,2.35
2019-05-29T18:10:08.448Z,1.70
2019-05-29T18:12:37.257Z,1.15
2019-05-29T18:15:07.318Z,2.62
2019-05-29T18:17:35.991Z,2.87
2019-05-29T18:20:14.052Z,4.00
2019-05-29T18:22:40.538Z,3.20
2019-05-29T18:25:09.526Z,3.58
2019-05-29T18:27:38.301Z,1.92
2019-05-29T18:30:10.001Z,2.20
2019-05-29T18:32:38.720Z,3.03
2019-05-29T18:35:09.213Z,2.58
2019-05-29T18:37:37.826Z,2.50
2019-05-29T18:40:12.267Z,4.20
2019-05-29T18:42:38.358Z,4.40
2019-05-29T18:45:20.464Z,4.22
2019-05-29T18:47:39.739Z,3.55
2019-05-29T18:50:10.159Z,2.62
2019-05-29T18:52:39.115Z,4.45
2019-05-29T18:55:08.590Z,4.50
2019-05-29T18:57:37.287Z,3.30
2019-05-29T19:00:11.163Z,4.33
2019-05-29T19:02:39.868Z,3.87
2019-05-29T19:05:08.979Z,3.50
2019-05-29T19:07:37.537Z,2.30
2019-05-29T19:10:07.170Z,5.07
2019-05-29T19:12:36.140Z,2.24
2019-05-29T19:15:07.310Z,3.87
2019-05-29T19:17:36.237Z,3.42
2019-05-29T19:20:05.717Z,3.90
2019-05-29T19:22:34.483Z,5.90
2019-05-29T19:25:04.676Z,6.23
2019-05-29T19:27:41.335Z,3.70
2019-05-29T19:30:05.435Z,2.80
2019-05-29T19:32:34.126Z,3.37
2019-05-29T19:35:03.290Z,2.45
2019-05-29T19:37:32.134Z,3.62
2019-05-29T19:40:00.757Z,4.93
2019-05-29T19:42:30.249Z,3.65
2019-05-29T19:44:58.919Z,3.40
2019-05-29T19:47:28.580Z,2.83
2019-05-29T19:49:57.284Z,2.67
2019-05-29T19:52:27.005Z,3.42
2019-05-29T19:54:55.713Z,2.77
2019-05-29T19:57:25.800Z,8.63
2019-05-29T19:59:54.594Z,4.37
2019-05-29T20:02:23.326Z,4.67
2019-05-29T20:04:51.970Z,2.60
2019-05-29T20:07:21.360Z,5.06
2019-05-29T20:09:49.925Z,3.47
2019-05-29T20:12:18.640Z,3.05
2019-05-29T20:14:47.329Z,6.10
2019-05-29T20:17:15.892Z,5.30
2019-05-29T20:19:44.526Z,3.50
2019-05-29T20:22:13.205Z,5.33
2019-05-29T20:24:41.779Z,3.77
2019-05-29T20:27:10.456Z,4.92
2019-05-29T20:29:39.219Z,3.75
2019-05-29T20:32:07.917Z,5.90
2019-05-29T20:34:36.882Z,2.77
2019-05-29T20:37:05.615Z,8.50
2019-05-29T20:39:34.566Z,3.65
2019-05-29T20:42:03.170Z,3.43
2019-05-29T20:44:32.588Z,5.40
2019-05-29T20:47:02.202Z,4.72
2019-05-29T20:49:31.890Z,3.72
2019-05-29T20:52:00.770Z,6.20
2019-05-29T20:54:29.449Z,4.42
2019-05-29T20:56:59.731Z,8.50
2019-05-29T20:59:28.513Z,3.58
2019-05-29T21:01:57.147Z,5.70
2019-05-29T21:04:25.799Z,4.75
2019-05-29T21:06:54.450Z,5.00
2019-05-29T21:09:23.127Z,7.04
2019-05-29T21:11:51.860Z,4.33
2019-05-29T21:14:20.505Z,4.97
2019-05-29T21:16:49.220Z,14.23
2019-05-29T21:19:17.941Z,4.00
2019-05-29T21:21:46.577Z,3.53
2019-05-29T21:24:15.346Z,8.68
2019-05-29T21:26:45.208Z,4.93
2019-05-29T21:29:13.910Z,3.62
2019-05-29T21:31:43.738Z,4.88
2019-05-29T21:34:12.634Z,5.12
2019-05-29T21:36:42.164Z,4.22
2019-05-29T21:39:10.964Z,5.22
2019-05-29T21:41:40.435Z,5.25
2019-05-29T21:44:09.190Z,4.43
2019-05-29T21:46:38.845Z,6.47
2019-05-29T21:49:07.609Z,8.18
2019-05-29T21:51:37.297Z,4.65
2019-05-29T21:54:07.399Z,4.68
2019-05-29T21:56:37.434Z,2.50
2019-05-29T21:59:06.463Z,8.48
2019-05-29T22:01:35.321Z,4.55
2019-05-29T22:04:04.121Z,2.80
2019-05-29T22:06:35.891Z,8.85
2019-05-29T22:09:09.346Z,5.30
2019-05-29T22:11:37.958Z,5.85
2019-05-29T22:14:06.965Z,6.55
2019-05-29T22:16:35.657Z,2.50
2019-05-29T22:19:04.704Z,6.15
2019-05-29T22:21:33.350Z,5.65
2019-05-29T22:24:03.694Z,3.37
2019-05-29T22:26:34.250Z,4.78
2019-05-29T22:29:17.072Z,3.87
2019-05-29T22:31:33.298Z,3.58
2019-05-29T22:34:02.046Z,6.20
2019-05-29T22:36:30.807Z,2.08
2019-05-29T22:38:59.650Z,5.37
2019-05-29T22:41:28.431Z,4.70
2019-05-29T22:43:57.589Z,3.98
2019-05-29T22:46:26.209Z,5.05
2019-05-29T22:48:55.880Z,7.35
2019-05-29T22:51:24.623Z,5.85
2019-05-29T22:53:53.955Z,2.83
2019-05-29T22:56:22.949Z,3.40
2019-05-29T22:58:52.123Z,2.95
2019-05-29T23:01:20.989Z,6.83
2019-05-29T23:03:49.608Z,5.40
2019-05-29T23:06:18.247Z,7.15
2019-05-29T23:08:46.969Z,6.40
2019-05-29T23:11:15.722Z,2.77
2019-05-29T23:13:48.132Z,3.10
2019-05-29T23:18:44.502Z,3.83
2019-05-29T23:21:13.206Z,5.10
2019-05-29T23:23:42.299Z,7.78
2019-05-29T23:26:11.070Z,3.67
2019-05-29T23:28:39.708Z,8.60
2019-05-29T23:31:08.348Z,4.85
2019-05-29T23:33:37.005Z,3.77
2019-05-29T23:36:05.712Z,3.60
2019-05-29T23:38:34.347Z,5.60
2019-05-29T23:41:03.753Z,4.10
2019-05-29T23:43:32.477Z,3.58
2019-05-29T23:46:02.435Z,1.52
2019-05-29T23:48:31.322Z,3.90
2019-05-29T23:50:59.886Z,3.70
2019-05-29T23:53:28.445Z,5.70
2019-05-29T23:55:57.656Z,8.63
2019-05-29T23:58:26.296Z,6.20
